sensor_id;sensor_type;location;lat;lon;timestamp;temperature;humidity
324;DHT22;149;51.094;17.002;2023-06-26T00:02:14;17.70;99.90
324;DHT22;149;51.094;17.002;2023-06-26T00:05:01;17.40;99.90
324;DHT22;149;51.094;17.002;2023-06-26T00:07:34;17.40;99.90
324;DHT22;149;51.094;17.002;2023-06-26T00:10:15;17.30;99.90
324;DHT22;149;51.094;17.002;2023-06-26T00:12:48;17.40;99.90
324;DHT22;149;51.094;17.002;2023-06-26T00:15:18;17.50;99.90
324;DHT22;149;51.094;17.002;2023-06-26T00:17:55;17.40;99.90
324;DHT22;149;51.094;17.002;2023-06-26T00:20:28;17.20;99.90
324;DHT22;149;51.094;17.002;2023-06-26T00:22:58;17.50;99.90
324;DHT22;149;51.094;17.002;2023-06-26T00:25:27;17.30;99.90
324;DHT22;149;51.094;17.002;2023-06-26T00:27:57;17.30;99.90
324;DHT22;149;51.094;17.002;2023-06-26T00:30:27;16.80;99.90
324;DHT22;149;51.094;17.002;2023-06-26T00:32:57;17.60;99.90
324;DHT22;149;51.094;17.002;2023-06-26T00:35:24;17.30;99.90
324;DHT22;149;51.094;17.002;2023-06-26T00:37:53;17.30;99.90
324;DHT22;149;51.094;17.002;2023-06-26T00:40:23;17.40;99.90
324;DHT22;149;51.094;17.002;2023-06-26T00:42:58;17.30;99.90
324;DHT22;149;51.094;17.002;2023-06-26T00:45:25;17.10;99.90
324;DHT22;149;51.094;17.002;2023-06-26T00:48:10;17.20;99.90
324;DHT22;149;51.094;17.002;2023-06-26T00:50:42;17.40;99.90
324;DHT22;149;51.094;17.002;2023-06-26T00:53:11;17.20;99.90
324;DHT22;149;51.094;17.002;2023-06-26T00:55:40;17.60;99.90
324;DHT22;149;51.094;17.002;2023-06-26T00:58:09;17.20;99.90
324;DHT22;149;51.094;17.002;2023-06-26T01:00:37;17.50;99.90
324;DHT22;149;51.094;17.002;2023-06-26T01:03:11;17.20;99.90
324;DHT22;149;51.094;17.002;2023-06-26T01:05:42;17.00;99.90
324;DHT22;149;51.094;17.002;2023-06-26T01:08:22;17.00;99.90
324;DHT22;149;51.094;17.002;2023-06-26T01:10:49;17.30;99.90
324;DHT22;149;51.094;17.002;2023-06-26T01:13:36;17.10;99.90
324;DHT22;149;51.094;17.002;2023-06-26T01:16:18;16.90;99.90
324;DHT22;149;51.094;17.002;2023-06-26T01:18:48;16.70;99.90
324;DHT22;149;51.094;17.002;2023-06-26T01:21:18;16.60;99.90
324;DHT22;149;51.094;17.002;2023-06-26T01:24:02;16.50;99.90
324;DHT22;149;51.094;17.002;2023-06-26T01:26:35;16.70;99.90
324;DHT22;149;51.094;17.002;2023-06-26T01:29:07;16.80;99.90
324;DHT22;149;51.094;17.002;2023-06-26T01:31:42;16.90;99.90
324;DHT22;149;51.094;17.002;2023-06-26T01:34:11;16.80;99.90
324;DHT22;149;51.094;17.002;2023-06-26T01:36:40;16.70;99.90
324;DHT22;149;51.094;17.002;2023-06-26T01:39:19;16.80;99.90
324;DHT22;149;51.094;17.002;2023-06-26T01:41:51;16.70;99.90
324;DHT22;149;51.094;17.002;2023-06-26T01:44:29;16.80;99.90
324;DHT22;149;51.094;17.002;2023-06-26T01:47:07;16.80;99.90
324;DHT22;149;51.094;17.002;2023-06-26T01:50:07;16.80;99.90
324;DHT22;149;51.094;17.002;2023-06-26T01:52:45;16.60;99.90
324;DHT22;149;51.094;17.002;2023-06-26T01:55:33;16.70;99.90
324;DHT22;149;51.094;17.002;2023-06-26T01:58:06;16.60;99.90
324;DHT22;149;51.094;17.002;2023-06-26T02:00:38;16.50;99.90
324;DHT22;149;51.094;17.002;2023-06-26T02:03:06;16.70;99.90
324;DHT22;149;51.094;17.002;2023-06-26T02:05:34;16.60;99.90
324;DHT22;149;51.094;17.002;2023-06-26T02:08:08;16.20;99.90
324;DHT22;149;51.094;17.002;2023-06-26T02:10:35;16.50;99.90
324;DHT22;149;51.094;17.002;2023-06-26T02:13:07;16.60;99.90
324;DHT22;149;51.094;17.002;2023-06-26T02:15:46;16.90;99.90
324;DHT22;149;51.094;17.002;2023-06-26T02:18:20;16.50;99.90
324;DHT22;149;51.094;17.002;2023-06-26T02:20:49;16.40;99.90
324;DHT22;149;51.094;17.002;2023-06-26T02:23:16;16.60;99.90
324;DHT22;149;51.094;17.002;2023-06-26T02:28:32;16.40;99.90
324;DHT22;149;51.094;17.002;2023-06-26T02:31:11;16.40;99.90
324;DHT22;149;51.094;17.002;2023-06-26T02:33:48;16.20;99.90
324;DHT22;149;51.094;17.002;2023-06-26T02:36:25;16.60;99.90
324;DHT22;149;51.094;17.002;2023-06-26T02:38:57;16.50;99.90
324;DHT22;149;51.094;17.002;2023-06-26T02:41:35;16.50;99.90
324;DHT22;149;51.094;17.002;2023-06-26T02:44:05;16.50;99.90
324;DHT22;149;51.094;17.002;2023-06-26T02:47:01;16.50;99.90
324;DHT22;149;51.094;17.002;2023-06-26T02:49:31;16.70;99.90
324;DHT22;149;51.094;17.002;2023-06-26T02:52:04;16.60;99.90
324;DHT22;149;51.094;17.002;2023-06-26T03:10:21;16.70;99.90
324;DHT22;149;51.094;17.002;2023-06-26T03:13:04;17.00;99.90
324;DHT22;149;51.094;17.002;2023-06-26T03:15:32;16.90;99.90
324;DHT22;149;51.094;17.002;2023-06-26T03:18:13;17.00;99.90
324;DHT22;149;51.094;17.002;2023-06-26T03:20:45;17.10;99.90
324;DHT22;149;51.094;17.002;2023-06-26T03:23:14;17.30;99.90
324;DHT22;149;51.094;17.002;2023-06-26T03:25:42;17.20;99.90
324;DHT22;149;51.094;17.002;2023-06-26T03:28:13;18.00;99.90
324;DHT22;149;51.094;17.002;2023-06-26T03:30:43;18.80;99.90
324;DHT22;149;51.094;17.002;2023-06-26T03:33:12;19.30;99.90
324;DHT22;149;51.094;17.002;2023-06-26T03:35:40;19.90;99.90
324;DHT22;149;51.094;17.002;2023-06-26T03:38:51;20.30;99.90
324;DHT22;149;51.094;17.002;2023-06-26T03:41:46;20.40;99.90
324;DHT22;149;51.094;17.002;2023-06-26T03:44:34;20.30;99.90
324;DHT22;149;51.094;17.002;2023-06-26T03:47:08;20.20;99.90
324;DHT22;149;51.094;17.002;2023-06-26T03:49:42;20.20;99.90
324;DHT22;149;51.094;17.002;2023-06-26T03:52:12;20.20;99.90
324;DHT22;149;51.094;17.002;2023-06-26T03:54:45;20.20;99.90
324;DHT22;149;51.094;17.002;2023-06-26T03:57:18;20.00;99.90
324;DHT22;149;51.094;17.002;2023-06-26T03:59:54;20.10;99.90
324;DHT22;149;51.094;17.002;2023-06-26T04:02:24;20.00;99.90
324;DHT22;149;51.094;17.002;2023-06-26T04:04:55;19.90;99.90
324;DHT22;149;51.094;17.002;2023-06-26T04:07:28;19.90;99.90
324;DHT22;149;51.094;17.002;2023-06-26T04:10:09;19.90;99.90
324;DHT22;149;51.094;17.002;2023-06-26T04:13:00;20.30;99.90
324;DHT22;149;51.094;17.002;2023-06-26T04:15:47;20.70;99.90
324;DHT22;149;51.094;17.002;2023-06-26T04:18:25;21.30;99.90
324;DHT22;149;51.094;17.002;2023-06-26T04:21:30;21.10;99.90
324;DHT22;149;51.094;17.002;2023-06-26T04:24:21;20.80;99.90
324;DHT22;149;51.094;17.002;2023-06-26T05:07:25;20.90;99.90
324;DHT22;149;51.094;17.002;2023-06-26T05:10:01;21.00;99.90
324;DHT22;149;51.094;17.002;2023-06-26T05:37:37;22.20;99.90
324;DHT22;149;51.094;17.002;2023-06-26T05:43:12;22.30;99.90
324;DHT22;149;51.094;17.002;2023-06-26T05:48:37;22.50;99.90
324;DHT22;149;51.094;17.002;2023-06-26T05:51:11;22.60;99.90
324;DHT22;149;51.094;17.002;2023-06-26T05:57:28;23.10;99.90
324;DHT22;149;51.094;17.002;2023-06-26T06:00:11;23.40;99.90
324;DHT22;149;51.094;17.002;2023-06-26T06:06:40;23.50;99.90
324;DHT22;149;51.094;17.002;2023-06-26T06:09:11;23.40;99.90
324;DHT22;149;51.094;17.002;2023-06-26T06:11:48;23.60;99.90
324;DHT22;149;51.094;17.002;2023-06-26T06:14:18;23.50;99.90
324;DHT22;149;51.094;17.002;2023-06-26T06:16:51;23.30;99.90
324;DHT22;149;51.094;17.002;2023-06-26T06:19:46;23.40;99.90
324;DHT22;149;51.094;17.002;2023-06-26T06:22:15;23.40;99.90
324;DHT22;149;51.094;17.002;2023-06-26T06:24:49;23.80;99.90
324;DHT22;149;51.094;17.002;2023-06-26T06:27:17;24.30;99.90
324;DHT22;149;51.094;17.002;2023-06-26T06:29:45;24.40;99.90
324;DHT22;149;51.094;17.002;2023-06-26T06:32:17;24.90;99.90
324;DHT22;149;51.094;17.002;2023-06-26T06:34:56;25.00;99.90
324;DHT22;149;51.094;17.002;2023-06-26T06:37:24;25.00;99.90
324;DHT22;149;51.094;17.002;2023-06-26T06:39:52;25.00;99.90
324;DHT22;149;51.094;17.002;2023-06-26T06:42:21;25.00;99.90
324;DHT22;149;51.094;17.002;2023-06-26T06:44:51;25.50;99.90
324;DHT22;149;51.094;17.002;2023-06-26T06:47:21;25.50;99.90
324;DHT22;149;51.094;17.002;2023-06-26T06:49:48;26.00;99.90
324;DHT22;149;51.094;17.002;2023-06-26T06:52:14;26.30;99.90
324;DHT22;149;51.094;17.002;2023-06-26T06:54:56;26.20;99.90
324;DHT22;149;51.094;17.002;2023-06-26T06:57:34;26.20;99.90
324;DHT22;149;51.094;17.002;2023-06-26T07:00:11;26.60;99.90
324;DHT22;149;51.094;17.002;2023-06-26T07:02:40;27.70;99.90
324;DHT22;149;51.094;17.002;2023-06-26T07:05:09;28.70;99.90
324;DHT22;149;51.094;17.002;2023-06-26T07:07:37;29.90;99.90
324;DHT22;149;51.094;17.002;2023-06-26T07:10:13;31.60;99.90
324;DHT22;149;51.094;17.002;2023-06-26T07:12:43;33.20;99.90
324;DHT22;149;51.094;17.002;2023-06-26T07:15:12;34.00;98.70
324;DHT22;149;51.094;17.002;2023-06-26T07:17:42;34.70;96.20
324;DHT22;149;51.094;17.002;2023-06-26T07:20:11;36.20;91.60
324;DHT22;149;51.094;17.002;2023-06-26T07:22:45;36.00;89.70
324;DHT22;149;51.094;17.002;2023-06-26T07:25:12;36.80;81.80
324;DHT22;149;51.094;17.002;2023-06-26T07:27:41;35.30;84.10
324;DHT22;149;51.094;17.002;2023-06-26T07:30:10;35.70;83.40
324;DHT22;149;51.094;17.002;2023-06-26T07:32:40;35.60;83.50
324;DHT22;149;51.094;17.002;2023-06-26T07:35:13;36.00;77.80
324;DHT22;149;51.094;17.002;2023-06-26T07:37:41;37.00;77.50
324;DHT22;149;51.094;17.002;2023-06-26T07:40:11;38.60;71.80
324;DHT22;149;51.094;17.002;2023-06-26T07:42:38;40.50;65.50
324;DHT22;149;51.094;17.002;2023-06-26T07:45:08;40.40;61.40
324;DHT22;149;51.094;17.002;2023-06-26T07:47:39;41.60;58.30
324;DHT22;149;51.094;17.002;2023-06-26T07:50:14;42.60;55.00
324;DHT22;149;51.094;17.002;2023-06-26T07:52:50;43.50;53.00
324;DHT22;149;51.094;17.002;2023-06-26T07:55:18;43.30;50.80
324;DHT22;149;51.094;17.002;2023-06-26T07:57:46;43.80;49.40
324;DHT22;149;51.094;17.002;2023-06-26T08:00:13;43.50;49.30
324;DHT22;149;51.094;17.002;2023-06-26T08:02:40;42.90;48.90
324;DHT22;149;51.094;17.002;2023-06-26T08:05:09;41.90;50.00
324;DHT22;149;51.094;17.002;2023-06-26T08:07:36;40.60;51.20
324;DHT22;149;51.094;17.002;2023-06-26T08:10:06;41.00;50.70
324;DHT22;149;51.094;17.002;2023-06-26T08:12:33;42.10;49.90
324;DHT22;149;51.094;17.002;2023-06-26T08:15:00;44.00;47.60
324;DHT22;149;51.094;17.002;2023-06-26T08:17:29;44.50;46.70
324;DHT22;149;51.094;17.002;2023-06-26T08:19:57;45.30;43.90
324;DHT22;149;51.094;17.002;2023-06-26T08:22:24;46.50;41.00
324;DHT22;149;51.094;17.002;2023-06-26T08:24:51;45.10;41.50
324;DHT22;149;51.094;17.002;2023-06-26T08:27:22;44.60;42.90
324;DHT22;149;51.094;17.002;2023-06-26T08:29:55;45.80;41.70
324;DHT22;149;51.094;17.002;2023-06-26T08:32:23;44.60;40.40
324;DHT22;149;51.094;17.002;2023-06-26T08:34:50;44.00;41.40
324;DHT22;149;51.094;17.002;2023-06-26T08:37:17;44.50;40.30
324;DHT22;149;51.094;17.002;2023-06-26T08:39:56;43.10;41.00
324;DHT22;149;51.094;17.002;2023-06-26T08:42:34;41.70;42.10
324;DHT22;149;51.094;17.002;2023-06-26T08:45:01;42.50;42.50
324;DHT22;149;51.094;17.002;2023-06-26T08:47:31;43.80;41.20
324;DHT22;149;51.094;17.002;2023-06-26T08:50:08;44.40;41.40
324;DHT22;149;51.094;17.002;2023-06-26T08:52:50;42.80;42.50
324;DHT22;149;51.094;17.002;2023-06-26T08:55:20;42.60;42.40
324;DHT22;149;51.094;17.002;2023-06-26T08:57:52;43.10;42.40
324;DHT22;149;51.094;17.002;2023-06-26T09:00:21;42.60;42.00
324;DHT22;149;51.094;17.002;2023-06-26T09:02:50;43.00;41.00
324;DHT22;149;51.094;17.002;2023-06-26T09:05:19;41.60;41.60
324;DHT22;149;51.094;17.002;2023-06-26T09:07:50;39.70;43.90
324;DHT22;149;51.094;17.002;2023-06-26T09:10:19;38.40;45.00
324;DHT22;149;51.094;17.002;2023-06-26T09:12:47;37.10;48.00
324;DHT22;149;51.094;17.002;2023-06-26T09:15:15;36.80;47.40
324;DHT22;149;51.094;17.002;2023-06-26T09:17:42;37.00;47.10
324;DHT22;149;51.094;17.002;2023-06-26T09:20:11;36.00;49.10
324;DHT22;149;51.094;17.002;2023-06-26T09:22:47;34.70;51.80
324;DHT22;149;51.094;17.002;2023-06-26T09:25:14;33.60;54.10
324;DHT22;149;51.094;17.002;2023-06-26T09:27:43;32.90;56.00
324;DHT22;149;51.094;17.002;2023-06-26T09:30:17;33.30;55.50
324;DHT22;149;51.094;17.002;2023-06-26T09:32:46;35.30;53.50
324;DHT22;149;51.094;17.002;2023-06-26T09:35:15;36.90;52.60
324;DHT22;149;51.094;17.002;2023-06-26T09:37:42;37.30;49.20
324;DHT22;149;51.094;17.002;2023-06-26T09:40:13;36.50;51.80
324;DHT22;149;51.094;17.002;2023-06-26T09:42:44;35.50;53.80
324;DHT22;149;51.094;17.002;2023-06-26T09:45:18;34.80;55.40
324;DHT22;149;51.094;17.002;2023-06-26T09:47:46;33.70;56.10
324;DHT22;149;51.094;17.002;2023-06-26T09:50:45;32.30;59.20
324;DHT22;149;51.094;17.002;2023-06-26T09:53:36;31.40;62.20
324;DHT22;149;51.094;17.002;2023-06-26T09:56:35;31.00;66.70
324;DHT22;149;51.094;17.002;2023-06-26T09:59:06;31.00;71.30
324;DHT22;149;51.094;17.002;2023-06-26T10:01:40;31.30;71.10
324;DHT22;149;51.094;17.002;2023-06-26T10:04:07;31.80;70.20
324;DHT22;149;51.094;17.002;2023-06-26T10:06:49;31.90;70.50
324;DHT22;149;51.094;17.002;2023-06-26T10:09:19;31.70;71.00
324;DHT22;149;51.094;17.002;2023-06-26T10:14:41;31.50;71.80
324;DHT22;149;51.094;17.002;2023-06-26T10:17:18;31.60;74.50
324;DHT22;149;51.094;17.002;2023-06-26T10:19:47;31.70;72.60
324;DHT22;149;51.094;17.002;2023-06-26T10:22:17;31.80;72.10
324;DHT22;149;51.094;17.002;2023-06-26T10:24:47;31.80;72.10
324;DHT22;149;51.094;17.002;2023-06-26T10:27:20;31.80;73.00
324;DHT22;149;51.094;17.002;2023-06-26T10:29:50;31.60;70.20
324;DHT22;149;51.094;17.002;2023-06-26T10:32:21;31.00;73.70
324;DHT22;149;51.094;17.002;2023-06-26T10:34:50;30.60;74.20
324;DHT22;149;51.094;17.002;2023-06-26T10:37:18;30.70;80.30
324;DHT22;149;51.094;17.002;2023-06-26T10:39:49;30.80;76.90
324;DHT22;149;51.094;17.002;2023-06-26T10:42:18;30.70;77.50
324;DHT22;149;51.094;17.002;2023-06-26T10:44:46;30.80;78.50
324;DHT22;149;51.094;17.002;2023-06-26T10:47:32;30.80;76.10
324;DHT22;149;51.094;17.002;2023-06-26T10:50:17;30.90;77.20
324;DHT22;149;51.094;17.002;2023-06-26T10:53:14;31.20;77.70
324;DHT22;149;51.094;17.002;2023-06-26T10:55:50;31.50;77.30
324;DHT22;149;51.094;17.002;2023-06-26T11:01:17;32.00;75.10
324;DHT22;149;51.094;17.002;2023-06-26T11:03:48;31.70;72.30
324;DHT22;149;51.094;17.002;2023-06-26T11:06:19;31.50;75.20
324;DHT22;149;51.094;17.002;2023-06-26T11:08:49;31.40;75.20
324;DHT22;149;51.094;17.002;2023-06-26T11:11:17;31.40;75.40
324;DHT22;149;51.094;17.002;2023-06-26T11:13:46;31.30;73.50
324;DHT22;149;51.094;17.002;2023-06-26T11:16:14;31.20;71.90
324;DHT22;149;51.094;17.002;2023-06-26T11:18:45;31.00;74.30
324;DHT22;149;51.094;17.002;2023-06-26T11:21:12;30.70;74.80
324;DHT22;149;51.094;17.002;2023-06-26T11:23:44;30.20;75.50
324;DHT22;149;51.094;17.002;2023-06-26T11:26:19;30.20;78.40
324;DHT22;149;51.094;17.002;2023-06-26T11:28:51;30.30;81.60
324;DHT22;149;51.094;17.002;2023-06-26T11:31:30;30.40;79.80
324;DHT22;149;51.094;17.002;2023-06-26T11:34:03;30.50;78.50
324;DHT22;149;51.094;17.002;2023-06-26T11:36:31;30.40;79.40
324;DHT22;149;51.094;17.002;2023-06-26T11:39:01;30.40;80.40
324;DHT22;149;51.094;17.002;2023-06-26T11:41:30;30.50;82.30
324;DHT22;149;51.094;17.002;2023-06-26T11:44:05;30.60;82.50
324;DHT22;149;51.094;17.002;2023-06-26T11:46:37;30.70;83.90
324;DHT22;149;51.094;17.002;2023-06-26T11:49:08;31.00;81.90
324;DHT22;149;51.094;17.002;2023-06-26T11:51:36;31.20;79.00
324;DHT22;149;51.094;17.002;2023-06-26T11:54:03;31.20;76.10
324;DHT22;149;51.094;17.002;2023-06-26T11:56:31;30.90;75.30
324;DHT22;149;51.094;17.002;2023-06-26T11:59:05;30.60;75.30
324;DHT22;149;51.094;17.002;2023-06-26T12:01:41;30.30;77.10
324;DHT22;149;51.094;17.002;2023-06-26T12:04:15;30.00;82.10
324;DHT22;149;51.094;17.002;2023-06-26T12:06:49;30.10;82.60
324;DHT22;149;51.094;17.002;2023-06-26T12:09:18;30.20;82.70
324;DHT22;149;51.094;17.002;2023-06-26T12:11:48;29.80;80.30
324;DHT22;149;51.094;17.002;2023-06-26T12:14:17;29.30;82.40
324;DHT22;149;51.094;17.002;2023-06-26T12:16:44;29.20;86.40
324;DHT22;149;51.094;17.002;2023-06-26T12:19:12;29.40;85.20
324;DHT22;149;51.094;17.002;2023-06-26T12:24:18;30.20;85.20
324;DHT22;149;51.094;17.002;2023-06-26T12:26:46;30.30;84.00
324;DHT22;149;51.094;17.002;2023-06-26T12:29:17;30.60;82.90
324;DHT22;149;51.094;17.002;2023-06-26T12:31:52;30.30;82.70
324;DHT22;149;51.094;17.002;2023-06-26T12:34:34;30.40;80.70
324;DHT22;149;51.094;17.002;2023-06-26T12:37:03;30.50;81.80
324;DHT22;149;51.094;17.002;2023-06-26T12:39:49;30.40;81.50
324;DHT22;149;51.094;17.002;2023-06-26T12:42:18;30.50;82.90
324;DHT22;149;51.094;17.002;2023-06-26T12:44:47;30.50;82.20
324;DHT22;149;51.094;17.002;2023-06-26T12:47:23;30.40;82.70
324;DHT22;149;51.094;17.002;2023-06-26T12:49:51;30.50;83.60
324;DHT22;149;51.094;17.002;2023-06-26T12:52:19;30.50;83.10
324;DHT22;149;51.094;17.002;2023-06-26T12:54:49;30.50;82.20
324;DHT22;149;51.094;17.002;2023-06-26T12:57:18;30.40;82.30
324;DHT22;149;51.094;17.002;2023-06-26T12:59:45;30.40;84.40
324;DHT22;149;51.094;17.002;2023-06-26T13:02:12;30.30;83.40
324;DHT22;149;51.094;17.002;2023-06-26T13:04:39;30.20;85.00
324;DHT22;149;51.094;17.002;2023-06-26T13:07:07;30.20;84.80
324;DHT22;149;51.094;17.002;2023-06-26T13:09:35;30.20;85.20
324;DHT22;149;51.094;17.002;2023-06-26T13:12:04;30.30;82.60
324;DHT22;149;51.094;17.002;2023-06-26T13:14:33;30.00;82.00
324;DHT22;149;51.094;17.002;2023-06-26T13:17:00;30.00;83.60
324;DHT22;149;51.094;17.002;2023-06-26T13:19:28;30.20;85.70
324;DHT22;149;51.094;17.002;2023-06-26T13:21:55;30.40;82.30
324;DHT22;149;51.094;17.002;2023-06-26T13:24:22;30.40;82.30
324;DHT22;149;51.094;17.002;2023-06-26T13:26:49;30.40;85.20
324;DHT22;149;51.094;17.002;2023-06-26T13:29:15;30.30;85.30
324;DHT22;149;51.094;17.002;2023-06-26T13:31:42;30.30;85.10
324;DHT22;149;51.094;17.002;2023-06-26T13:34:22;30.30;87.40
324;DHT22;149;51.094;17.002;2023-06-26T13:36:50;30.40;87.80
324;DHT22;149;51.094;17.002;2023-06-26T13:39:17;30.30;88.20
324;DHT22;149;51.094;17.002;2023-06-26T13:41:45;30.30;86.00
324;DHT22;149;51.094;17.002;2023-06-26T13:44:12;30.30;85.70
324;DHT22;149;51.094;17.002;2023-06-26T13:46:50;30.30;85.30
324;DHT22;149;51.094;17.002;2023-06-26T13:49:17;30.40;85.40
324;DHT22;149;51.094;17.002;2023-06-26T13:51:44;30.50;86.10
324;DHT22;149;51.094;17.002;2023-06-26T13:54:13;30.60;88.70
324;DHT22;149;51.094;17.002;2023-06-26T13:56:45;30.60;86.50
324;DHT22;149;51.094;17.002;2023-06-26T13:59:14;30.50;88.20
324;DHT22;149;51.094;17.002;2023-06-26T14:01:41;30.40;89.60
324;DHT22;149;51.094;17.002;2023-06-26T14:04:13;30.50;88.90
324;DHT22;149;51.094;17.002;2023-06-26T14:06:40;30.60;88.20
324;DHT22;149;51.094;17.002;2023-06-26T14:09:08;30.30;87.00
324;DHT22;149;51.094;17.002;2023-06-26T14:11:35;30.20;87.00
324;DHT22;149;51.094;17.002;2023-06-26T14:14:03;30.20;88.20
324;DHT22;149;51.094;17.002;2023-06-26T14:16:30;30.20;88.80
324;DHT22;149;51.094;17.002;2023-06-26T14:18:57;30.20;90.40
324;DHT22;149;51.094;17.002;2023-06-26T14:21:26;30.30;90.30
324;DHT22;149;51.094;17.002;2023-06-26T14:23:57;30.20;87.90
324;DHT22;149;51.094;17.002;2023-06-26T14:26:24;30.20;89.40
324;DHT22;149;51.094;17.002;2023-06-26T14:28:51;30.20;89.50
324;DHT22;149;51.094;17.002;2023-06-26T14:31:18;30.10;87.50
324;DHT22;149;51.094;17.002;2023-06-26T14:37:04;30.10;90.00
324;DHT22;149;51.094;17.002;2023-06-26T14:39:31;30.20;90.70
324;DHT22;149;51.094;17.002;2023-06-26T14:41:59;30.20;90.90
324;DHT22;149;51.094;17.002;2023-06-26T14:44:26;30.10;91.90
324;DHT22;149;51.094;17.002;2023-06-26T14:46:56;30.20;92.00
324;DHT22;149;51.094;17.002;2023-06-26T14:49:23;30.30;91.20
324;DHT22;149;51.094;17.002;2023-06-26T14:51:50;30.40;91.50
324;DHT22;149;51.094;17.002;2023-06-26T14:54:17;30.40;91.50
324;DHT22;149;51.094;17.002;2023-06-26T14:56:47;30.30;91.00
324;DHT22;149;51.094;17.002;2023-06-26T14:59:14;30.40;92.00
324;DHT22;149;51.094;17.002;2023-06-26T15:01:41;30.20;92.10
324;DHT22;149;51.094;17.002;2023-06-26T15:04:09;30.10;92.60
324;DHT22;149;51.094;17.002;2023-06-26T15:06:37;30.00;93.70
324;DHT22;149;51.094;17.002;2023-06-26T15:09:04;29.70;92.60
324;DHT22;149;51.094;17.002;2023-06-26T15:11:32;29.60;93.30
324;DHT22;149;51.094;17.002;2023-06-26T15:13:59;29.70;94.60
324;DHT22;149;51.094;17.002;2023-06-26T15:16:26;29.90;94.80
324;DHT22;149;51.094;17.002;2023-06-26T15:18:53;29.80;94.50
324;DHT22;149;51.094;17.002;2023-06-26T15:21:21;29.90;95.00
324;DHT22;149;51.094;17.002;2023-06-26T15:23:47;29.80;94.50
324;DHT22;149;51.094;17.002;2023-06-26T15:26:15;29.80;94.10
324;DHT22;149;51.094;17.002;2023-06-26T15:28:41;29.70;94.70
324;DHT22;149;51.094;17.002;2023-06-26T15:31:09;29.70;94.50
324;DHT22;149;51.094;17.002;2023-06-26T15:33:36;29.50;95.00
324;DHT22;149;51.094;17.002;2023-06-26T15:36:06;29.50;96.60
324;DHT22;149;51.094;17.002;2023-06-26T15:38:35;29.30;97.20
324;DHT22;149;51.094;17.002;2023-06-26T15:41:02;29.30;98.00
324;DHT22;149;51.094;17.002;2023-06-26T15:43:32;29.30;96.80
324;DHT22;149;51.094;17.002;2023-06-26T15:45:59;29.30;96.70
324;DHT22;149;51.094;17.002;2023-06-26T15:48:26;29.20;97.60
324;DHT22;149;51.094;17.002;2023-06-26T15:50:56;29.10;97.30
324;DHT22;149;51.094;17.002;2023-06-26T15:53:44;28.90;98.80
324;DHT22;149;51.094;17.002;2023-06-26T15:56:11;28.90;98.70
324;DHT22;149;51.094;17.002;2023-06-26T15:58:40;28.80;99.10
324;DHT22;149;51.094;17.002;2023-06-26T16:01:15;28.80;98.40
324;DHT22;149;51.094;17.002;2023-06-26T16:03:43;28.80;99.50
324;DHT22;149;51.094;17.002;2023-06-26T16:06:10;28.80;99.20
324;DHT22;149;51.094;17.002;2023-06-26T16:08:38;28.90;99.90
324;DHT22;149;51.094;17.002;2023-06-26T16:11:07;29.00;99.60
324;DHT22;149;51.094;17.002;2023-06-26T16:13:34;29.10;99.80
324;DHT22;149;51.094;17.002;2023-06-26T16:16:01;29.10;99.70
324;DHT22;149;51.094;17.002;2023-06-26T16:18:28;29.10;99.90
324;DHT22;149;51.094;17.002;2023-06-26T16:20:57;28.90;99.90
324;DHT22;149;51.094;17.002;2023-06-26T16:23:25;29.10;99.90
324;DHT22;149;51.094;17.002;2023-06-26T16:25:52;29.10;99.90
324;DHT22;149;51.094;17.002;2023-06-26T16:28:19;29.10;99.70
324;DHT22;149;51.094;17.002;2023-06-26T16:30:47;29.00;99.90
324;DHT22;149;51.094;17.002;2023-06-26T16:33:14;29.00;99.90
324;DHT22;149;51.094;17.002;2023-06-26T16:35:42;29.10;99.90
324;DHT22;149;51.094;17.002;2023-06-26T16:38:09;29.10;99.90
324;DHT22;149;51.094;17.002;2023-06-26T16:40:36;29.00;99.90
324;DHT22;149;51.094;17.002;2023-06-26T16:43:04;28.90;99.90
324;DHT22;149;51.094;17.002;2023-06-26T16:45:32;28.90;99.90
324;DHT22;149;51.094;17.002;2023-06-26T16:48:00;28.90;99.90
324;DHT22;149;51.094;17.002;2023-06-26T16:50:27;28.90;99.90
324;DHT22;149;51.094;17.002;2023-06-26T16:52:54;28.70;99.90
324;DHT22;149;51.094;17.002;2023-06-26T16:55:21;28.70;99.90
324;DHT22;149;51.094;17.002;2023-06-26T16:57:48;28.60;99.90
324;DHT22;149;51.094;17.002;2023-06-26T17:00:16;28.50;99.90
324;DHT22;149;51.094;17.002;2023-06-26T17:02:44;28.40;99.90
324;DHT22;149;51.094;17.002;2023-06-26T17:05:12;28.50;99.90
324;DHT22;149;51.094;17.002;2023-06-26T17:07:39;28.40;99.90
324;DHT22;149;51.094;17.002;2023-06-26T17:10:06;28.40;99.90
324;DHT22;149;51.094;17.002;2023-06-26T17:12:33;28.40;99.90
324;DHT22;149;51.094;17.002;2023-06-26T17:15:01;28.50;99.90
324;DHT22;149;51.094;17.002;2023-06-26T17:17:30;28.30;99.90
324;DHT22;149;51.094;17.002;2023-06-26T17:19:57;28.20;99.90
324;DHT22;149;51.094;17.002;2023-06-26T17:22:24;28.10;99.90
324;DHT22;149;51.094;17.002;2023-06-26T17:24:54;28.20;99.90
324;DHT22;149;51.094;17.002;2023-06-26T17:27:25;28.20;99.90
324;DHT22;149;51.094;17.002;2023-06-26T17:29:54;28.30;99.90
324;DHT22;149;51.094;17.002;2023-06-26T17:32:21;28.20;99.90
324;DHT22;149;51.094;17.002;2023-06-26T17:34:51;28.10;99.90
324;DHT22;149;51.094;17.002;2023-06-26T17:37:20;28.10;99.90
324;DHT22;149;51.094;17.002;2023-06-26T17:39:50;28.00;99.90
324;DHT22;149;51.094;17.002;2023-06-26T17:42:18;27.80;99.90
324;DHT22;149;51.094;17.002;2023-06-26T17:44:45;27.80;99.90
324;DHT22;149;51.094;17.002;2023-06-26T17:47:13;27.70;99.90
324;DHT22;149;51.094;17.002;2023-06-26T17:49:41;27.60;99.90
324;DHT22;149;51.094;17.002;2023-06-26T17:52:08;27.70;99.90
324;DHT22;149;51.094;17.002;2023-06-26T17:54:35;27.50;99.90
324;DHT22;149;51.094;17.002;2023-06-26T17:57:03;27.50;99.90
324;DHT22;149;51.094;17.002;2023-06-26T17:59:29;27.50;99.90
324;DHT22;149;51.094;17.002;2023-06-26T18:01:58;27.50;99.90
324;DHT22;149;51.094;17.002;2023-06-26T18:04:29;27.50;99.90
324;DHT22;149;51.094;17.002;2023-06-26T18:06:57;27.50;99.90
324;DHT22;149;51.094;17.002;2023-06-26T18:09:24;27.40;99.90
324;DHT22;149;51.094;17.002;2023-06-26T18:11:51;27.30;99.90
324;DHT22;149;51.094;17.002;2023-06-26T18:14:18;27.10;99.90
324;DHT22;149;51.094;17.002;2023-06-26T18:16:45;27.00;99.90
324;DHT22;149;51.094;17.002;2023-06-26T18:19:15;26.90;99.90
324;DHT22;149;51.094;17.002;2023-06-26T18:21:42;26.90;99.90
324;DHT22;149;51.094;17.002;2023-06-26T18:24:09;26.90;99.90
324;DHT22;149;51.094;17.002;2023-06-26T18:26:36;26.80;99.90
324;DHT22;149;51.094;17.002;2023-06-26T18:29:05;26.80;99.90
324;DHT22;149;51.094;17.002;2023-06-26T18:31:32;26.70;99.90
324;DHT22;149;51.094;17.002;2023-06-26T18:33:59;26.60;99.90